Time;durP1;ratioP1;P1;durP2;ratioP2;P2;SDS_P1;SDS_P2;PMS_P1;PMS_P2;Temp;Humidity;BMP_temperature;BMP_pressure;BME280_temperature;BME280_humidity;BME280_pressure;Samples;Min_cycle;Max_cycle;Signal;HPM_P1;HPM_P2
2021/09/02 00:00:17;;;;;;;8.35;4.80;;;19.50;92.40;;;;;;5069597;28;20036;-84
2021/09/02 00:02:43;;;;;;;4.93;4.25;;;19.60;92.40;;;;;;5069340;28;20385;-84
2021/09/02 00:05:09;;;;;;;8.63;4.22;;;19.60;92.60;;;;;;5069657;28;20047;-84
2021/09/02 00:07:34;;;;;;;6.10;4.20;;;19.60;92.70;;;;;;5069462;28;20025;-85
2021/09/02 00:10:00;;;;;;;6.85;4.15;;;19.60;92.90;;;;;;5069409;28;20108;-87
2021/09/02 00:12:26;;;;;;;8.15;4.38;;;19.60;92.90;;;;;;5069652;28;20099;-85
2021/09/02 00:14:52;;;;;;;7.43;4.50;;;19.60;93.10;;;;;;5068051;28;20119;-85
2021/09/02 00:17:18;;;;;;;5.80;4.45;;;19.50;92.90;;;;;;5069301;28;20481;-85
2021/09/02 00:19:43;;;;;;;6.28;4.50;;;19.50;93.00;;;;;;5069262;28;20017;-84
2021/09/02 00:22:09;;;;;;;7.38;4.53;;;19.50;93.50;;;;;;5069786;28;20032;-84
2021/09/02 00:24:35;;;;;;;6.68;4.25;;;19.40;93.70;;;;;;5069227;28;20029;-84
2021/09/02 00:27:00;;;;;;;8.35;4.15;;;19.40;93.30;;;;;;5069402;28;20025;-84
2021/09/02 00:29:26;;;;;;;7.85;4.15;;;19.40;93.50;;;;;;5069362;28;20032;-84
2021/09/02 00:31:52;;;;;;;8.32;4.50;;;19.40;93.80;;;;;;5069318;28;20476;-85
2021/09/02 00:34:18;;;;;;;6.28;4.38;;;19.40;93.90;;;;;;5067760;28;20388;-85
2021/09/02 00:36:43;;;;;;;8.70;4.07;;;19.40;93.70;;;;;;5069127;28;20099;-85
2021/09/02 00:39:09;;;;;;;8.95;4.07;;;19.40;93.70;;;;;;5069102;28;20025;-84
2021/09/02 00:41:35;;;;;;;5.63;4.03;;;19.40;93.90;;;;;;5069117;28;20082;-84
2021/09/02 00:44:00;;;;;;;5.15;4.20;;;19.30;94.30;;;;;;5069151;28;20028;-84
2021/09/02 00:46:26;;;;;;;6.55;4.38;;;19.30;94.20;;;;;;5071370;28;20078;-85
2021/09/02 00:48:52;;;;;;;6.35;4.20;;;19.20;94.40;;;;;;5072712;28;20021;-85
2021/09/02 00:51:19;;;;;;;10.00;5.05;;;19.20;94.60;;;;;;5073060;28;20595;-85
2021/09/02 00:53:50;;;;;;;5.63;4.28;;;19.20;94.30;;;;;;5072631;28;20024;-84
2021/09/02 00:56:16;;;;;;;7.47;4.68;;;19.20;94.90;;;;;;5072786;28;20017;-84
2021/09/02 01:01:17;;;;;;;8.30;4.70;;;19.20;94.70;;;;;;6076673;23;20020;-84
2021/09/02 01:03:44;;;;;;;8.68;5.18;;;19.10;94.70;;;;;;4992570;28;20556;-84
2021/09/02 01:06:10;;;;;;;6.25;4.35;;;19.10;94.70;;;;;;4993635;28;20054;-84
2021/09/02 01:08:37;;;;;;;5.45;4.50;;;19.10;95.00;;;;;;4993622;28;20107;-85
2021/09/02 01:11:02;;;;;;;7.90;4.60;;;19.10;95.40;;;;;;4993919;28;20422;-85
2021/09/02 01:13:29;;;;;;;6.18;4.65;;;19.00;95.20;;;;;;4993719;28;20030;-85
2021/09/02 01:15:56;;;;;;;6.47;4.70;;;19.00;95.50;;;;;;4993708;28;20224;-85
2021/09/02 01:18:21;;;;;;;8.77;4.70;;;18.90;95.90;;;;;;4993674;28;20293;-84
2021/09/02 01:20:47;;;;;;;6.43;4.70;;;18.90;96.00;;;;;;4992166;28;20286;-84
2021/09/02 01:23:22;;;;;;;8.05;5.28;;;18.90;95.80;;;;;;4993412;28;20022;-84
2021/09/02 01:25:48;;;;;;;8.10;4.90;;;18.90;96.10;;;;;;4993410;28;20026;-84
2021/09/02 01:28:15;;;;;;;7.30;4.90;;;18.80;96.10;;;;;;4993249;28;20478;-84
2021/09/02 01:30:42;;;;;;;9.27;4.78;;;18.80;96.40;;;;;;4993062;28;20041;-85
2021/09/02 01:33:15;;;;;;;8.48;5.20;;;18.90;96.20;;;;;;4993027;28;20029;-84
2021/09/02 01:35:41;;;;;;;7.28;4.50;;;18.80;96.60;;;;;;4992943;28;20053;-84
2021/09/02 01:38:08;;;;;;;6.88;4.93;;;18.70;96.60;;;;;;4993070;28;20034;-84
2021/09/02 01:40:34;;;;;;;6.82;4.80;;;18.70;96.50;;;;;;4992679;28;20038;-84
2021/09/02 01:43:01;;;;;;;7.57;4.88;;;18.70;96.90;;;;;;4992958;28;20049;-85
2021/09/02 01:45:27;;;;;;;6.70;4.43;;;18.60;97.00;;;;;;4991549;28;20057;-84
2021/09/02 01:47:59;;;;;;;7.70;4.95;;;18.60;97.10;;;;;;4992983;28;20026;-85
2021/09/02 01:50:26;;;;;;;8.25;4.80;;;18.60;97.30;;;;;;4991313;28;20478;-84
2021/09/02 01:52:54;;;;;;;8.52;5.18;;;18.60;97.20;;;;;;4992765;28;20030;-85
2021/09/02 01:55:22;;;;;;;7.43;5.10;;;18.50;97.30;;;;;;4992876;28;20478;-84
2021/09/02 01:57:48;;;;;;;10.40;4.88;;;18.60;97.60;;;;;;4991988;28;20023;-84
2021/09/02 02:00:15;;;;;;;7.25;4.70;;;18.50;97.80;;;;;;4992554;28;20120;-84
2021/09/02 02:02:41;;;;;;;6.68;5.18;;;18.40;97.80;;;;;;4991934;28;20061;-84
2021/09/02 02:05:09;;;;;;;9.15;4.72;;;18.40;98.30;;;;;;4992570;28;20026;-84
2021/09/02 02:07:35;;;;;;;5.28;4.38;;;18.50;98.20;;;;;;4992506;28;20033;-84
2021/09/02 02:10:03;;;;;;;6.72;4.43;;;18.50;98.00;;;;;;4992305;28;20418;-84
2021/09/02 02:12:29;;;;;;;12.90;4.93;;;18.40;98.80;;;;;;4992410;28;20033;-84
2021/09/02 02:14:54;;;;;;;12.07;5.00;;;18.40;98.40;;;;;;4990880;28;20046;-85
2021/09/02 02:17:20;;;;;;;8.07;5.18;;;18.40;98.40;;;;;;4990665;28;20022;-84
2021/09/02 02:19:45;;;;;;;8.25;5.15;;;18.40;98.50;;;;;;4991176;28;20085;-85
2021/09/02 02:22:11;;;;;;;8.57;4.97;;;18.30;98.80;;;;;;4990997;28;20038;-84
2021/09/02 02:24:40;;;;;;;9.00;4.50;;;18.40;98.80;;;;;;4990755;28;20018;-85
2021/09/02 02:27:05;;;;;;;8.48;5.20;;;18.40;99.00;;;;;;4992042;28;20034;-84
2021/09/02 02:29:31;;;;;;;7.47;4.57;;;18.40;99.20;;;;;;4992034;28;20022;-85
2021/09/02 02:31:57;;;;;;;7.30;5.15;;;18.30;98.80;;;;;;4991792;28;20027;-84
2021/09/02 02:34:23;;;;;;;7.93;4.63;;;18.30;99.20;;;;;;4992088;28;20026;-85
2021/09/02 02:36:49;;;;;;;8.60;5.00;;;18.30;99.40;;;;;;4990734;28;20049;-84
2021/09/02 02:39:15;;;;;;;6.55;4.60;;;18.20;99.40;;;;;;4991797;28;20022;-84
2021/09/02 02:41:41;;;;;;;7.63;5.05;;;18.20;99.60;;;;;;4991817;28;20474;-84
2021/09/02 02:44:06;;;;;;;11.52;4.85;;;18.20;99.90;;;;;;4991523;28;20394;-84
2021/09/02 02:46:32;;;;;;;6.85;4.82;;;18.20;99.80;;;;;;4990129;28;20033;-84
2021/09/02 02:48:58;;;;;;;6.65;5.53;;;18.20;99.70;;;;;;4990149;28;20486;-84
2021/09/02 02:51:24;;;;;;;12.90;5.65;;;18.20;99.90;;;;;;4991614;28;20069;-85
2021/09/02 02:53:50;;;;;;;9.57;4.90;;;18.10;99.90;;;;;;4991863;28;20098;-84
2021/09/02 02:56:15;;;;;;;9.68;5.20;;;18.10;99.90;;;;;;4990172;28;20404;-84
2021/09/02 02:58:42;;;;;;;8.82;5.10;;;18.10;99.90;;;;;;4991652;28;20033;-84
2021/09/02 03:01:08;;;;;;;6.60;5.05;;;18.10;99.90;;;;;;4991296;28;20034;-84
2021/09/02 03:03:33;;;;;;;10.90;5.22;;;18.10;99.90;;;;;;4991280;28;20524;-84
2021/09/02 03:05:59;;;;;;;8.25;5.05;;;18.10;99.90;;;;;;4989782;28;20033;-84
2021/09/02 03:08:24;;;;;;;7.40;5.35;;;18.00;99.90;;;;;;4991637;28;20060;-84
2021/09/02 03:10:50;;;;;;;8.10;5.20;;;18.10;99.90;;;;;;4991365;28;20379;-84
2021/09/02 03:13:16;;;;;;;8.65;5.70;;;18.00;99.90;;;;;;4991346;28;20393;-85
2021/09/02 03:15:41;;;;;;;7.28;5.10;;;18.00;99.90;;;;;;4989785;28;20524;-84
2021/09/02 03:18:07;;;;;;;7.53;5.18;;;18.00;99.90;;;;;;4991260;28;20034;-84
2021/09/02 03:20:33;;;;;;;6.43;5.13;;;17.90;99.90;;;;;;4989805;28;20038;-85
2021/09/02 03:22:58;;;;;;;9.18;5.53;;;17.90;99.90;;;;;;4991265;28;20109;-84
2021/09/02 03:25:24;;;;;;;10.45;5.25;;;18.00;99.90;;;;;;4989980;28;20070;-84
2021/09/02 03:27:52;;;;;;;9.35;5.38;;;18.00;99.90;;;;;;4990074;28;20065;-85
2021/09/02 03:30:17;;;;;;;6.47;5.40;;;17.80;99.90;;;;;;4991278;28;20034;-85
2021/09/02 03:32:43;;;;;;;8.90;5.40;;;17.80;99.90;;;;;;4991602;28;20030;-84
2021/09/02 03:35:09;;;;;;;7.40;5.43;;;17.80;99.90;;;;;;4991887;28;20463;-85
2021/09/02 03:37:35;;;;;;;11.65;5.32;;;17.80;99.90;;;;;;4991347;28;20034;-85
2021/09/02 03:40:01;;;;;;;8.70;5.53;;;17.80;99.90;;;;;;4990965;28;20471;-85
2021/09/02 03:42:26;;;;;;;8.52;5.60;;;17.70;99.90;;;;;;4990712;28;20552;-85
2021/09/02 03:44:52;;;;;;;10.43;5.75;;;17.70;99.90;;;;;;4990711;28;20029;-84
2021/09/02 03:47:18;;;;;;;8.48;5.65;;;17.70;99.90;;;;;;4990723;28;20106;-85
2021/09/02 03:49:43;;;;;;;7.57;5.40;;;17.70;99.90;;;;;;4990932;28;20422;-84
2021/09/02 03:52:09;;;;;;;7.88;5.28;;;17.70;99.90;;;;;;4990896;28;20084;-84
2021/09/02 03:54:35;;;;;;;7.32;5.18;;;17.60;99.90;;;;;;4990742;28;20026;-85
2021/09/02 03:57:01;;;;;;;7.55;5.43;;;17.60;99.90;;;;;;4990727;28;20453;-84
2021/09/02 03:59:26;;;;;;;7.60;5.47;;;17.60;99.90;;;;;;4990571;28;20644;-85
2021/09/02 04:01:52;;;;;;;8.82;5.57;;;17.70;99.90;;;;;;4990226;28;20045;-84
2021/09/02 04:04:18;;;;;;;8.27;5.43;;;17.70;99.90;;;;;;4990651;28;20057;-85
2021/09/02 04:06:43;;;;;;;8.15;5.82;;;17.70;99.90;;;;;;4990859;28;20053;-85
2021/09/02 04:09:09;;;;;;;10.02;6.13;;;17.60;99.90;;;;;;4990667;28;20101;-84
2021/09/02 04:11:35;;;;;;;7.72;5.90;;;17.60;99.90;;;;;;4989437;28;20037;-85
2021/09/02 04:14:01;;;;;;;7.22;5.70;;;17.60;99.90;;;;;;4990962;28;20490;-84
2021/09/02 04:16:26;;;;;;;8.00;5.95;;;17.60;99.90;;;;;;4990347;28;20034;-84
2021/09/02 04:18:52;;;;;;;8.35;5.35;;;17.50;99.90;;;;;;4989034;28;20027;-85
2021/09/02 04:21:18;;;;;;;10.85;6.75;;;17.50;99.90;;;;;;4992474;28;20061;-85
2021/09/02 04:23:46;;;;;;;7.97;6.35;;;17.40;99.90;;;;;;4993214;28;20022;-85
2021/09/02 04:26:11;;;;;;;9.70;6.03;;;17.40;99.90;;;;;;4994380;28;20503;-85
2021/09/02 04:28:37;;;;;;;9.00;6.47;;;17.40;99.90;;;;;;4994378;28;20046;-85
2021/09/02 04:31:03;;;;;;;12.15;6.68;;;17.40;99.90;;;;;;4992920;28;20026;-85
2021/09/02 04:33:29;;;;;;;12.57;6.07;;;17.40;99.90;;;;;;4992906;28;20033;-84
2021/09/02 04:35:55;;;;;;;10.07;6.18;;;17.30;99.90;;;;;;4992785;28;20045;-85
2021/09/02 04:38:21;;;;;;;9.85;6.03;;;17.40;99.90;;;;;;4992841;28;20022;-85
2021/09/02 04:40:48;;;;;;;10.73;6.07;;;17.40;99.90;;;;;;4992586;28;20034;-84
2021/09/02 04:43:14;;;;;;;13.27;6.53;;;17.40;99.90;;;;;;4994116;28;20027;-85
2021/09/02 04:45:40;;;;;;;10.55;6.43;;;17.40;99.90;;;;;;4993800;28;20394;-85
2021/09/02 04:48:21;;;;;;;13.52;5.80;;;17.40;99.90;;;;;;4992782;28;20026;-85
2021/09/02 04:50:49;;;;;;;8.23;5.80;;;17.40;99.90;;;;;;4993813;28;20109;-84
2021/09/02 04:53:15;;;;;;;7.70;6.25;;;17.40;99.90;;;;;;4993851;28;20077;-85
2021/09/02 04:55:41;;;;;;;9.20;6.05;;;17.40;99.90;;;;;;4993063;28;20053;-85
2021/09/02 04:58:09;;;;;;;9.70;6.68;;;17.30;99.90;;;;;;4993085;28;20508;-84
2021/09/02 05:00:36;;;;;;;9.23;6.35;;;17.40;99.90;;;;;;4994023;28;20045;-84
2021/09/02 05:03:01;;;;;;;12.20;7.07;;;17.30;99.90;;;;;;4992561;28;20141;-84
2021/09/02 05:05:27;;;;;;;8.57;6.20;;;17.30;99.90;;;;;;4994115;28;20109;-84
2021/09/02 05:07:54;;;;;;;8.75;6.25;;;17.30;99.90;;;;;;4993852;28;20022;-85
2021/09/02 05:10:20;;;;;;;8.43;6.53;;;17.20;99.90;;;;;;4992278;28;20053;-85
2021/09/02 05:12:46;;;;;;;8.23;6.40;;;17.20;99.90;;;;;;4993673;28;20494;-85
2021/09/02 05:15:11;;;;;;;9.80;6.05;;;17.30;99.90;;;;;;4993117;28;20056;-84
2021/09/02 05:17:37;;;;;;;11.10;6.47;;;17.30;99.90;;;;;;4993530;28;20034;-85
2021/09/02 05:20:04;;;;;;;12.02;6.47;;;17.30;99.90;;;;;;4993408;28;20034;-84
2021/09/02 05:22:30;;;;;;;9.43;6.07;;;17.30;99.90;;;;;;4992034;28;20125;-84
2021/09/02 05:24:56;;;;;;;9.52;6.25;;;17.40;99.90;;;;;;4993390;28;20110;-84
2021/09/02 05:27:21;;;;;;;11.77;6.22;;;17.20;99.90;;;;;;4993146;28;20059;-84
2021/09/02 05:29:47;;;;;;;9.82;6.82;;;17.20;99.90;;;;;;4993044;28;20027;-82
2021/09/02 05:32:13;;;;;;;8.05;6.47;;;17.20;99.90;;;;;;4991709;28;20073;-83
2021/09/02 05:34:38;;;;;;;12.82;6.00;;;17.20;99.90;;;;;;4993202;28;20026;-83
2021/09/02 05:37:04;;;;;;;8.75;6.13;;;17.30;99.90;;;;;;4984301;28;20077;-83
2021/09/02 05:39:30;;;;;;;9.57;6.57;;;17.30;99.90;;;;;;4980294;28;20491;-84
2021/09/02 05:41:56;;;;;;;12.88;6.38;;;17.30;99.90;;;;;;4983503;28;20034;-83
2021/09/02 05:44:22;;;;;;;8.38;6.35;;;17.30;99.90;;;;;;4983305;28;20179;-83
2021/09/02 05:46:47;;;;;;;9.60;6.20;;;17.30;99.90;;;;;;4985591;28;20178;-86
2021/09/02 05:49:13;;;;;;;9.82;6.30;;;17.40;99.90;;;;;;4983114;28;20027;-83
2021/09/02 05:51:39;;;;;;;11.55;5.90;;;17.40;99.90;;;;;;4983203;28;20035;-96
2021/09/02 05:54:05;;;;;;;12.07;5.95;;;17.40;99.90;;;;;;4989260;28;20463;-88
2021/09/02 05:56:31;;;;;;;10.27;6.15;;;17.40;99.90;;;;;;4994038;28;20033;-82
2021/09/02 05:58:56;;;;;;;10.38;6.50;;;17.30;99.90;;;;;;4993512;28;20470;-83
2021/09/02 06:01:22;;;;;;;9.52;6.32;;;17.30;99.90;;;;;;4992589;28;20035;-82
2021/09/02 06:03:48;;;;;;;13.27;6.45;;;17.30;99.90;;;;;;4991682;28;20022;-86
2021/09/02 06:06:14;;;;;;;9.02;6.43;;;17.40;99.90;;;;;;4992735;28;20026;-83
2021/09/02 06:08:40;;;;;;;10.18;6.55;;;17.30;99.90;;;;;;4991653;28;20240;-83
2021/09/02 06:11:05;;;;;;;9.68;6.75;;;17.30;99.90;;;;;;4990365;28;20026;-83
2021/09/02 06:13:32;;;;;;;11.98;7.10;;;17.30;99.90;;;;;;4988384;28;20026;-95
2021/09/02 06:15:58;;;;;;;9.50;6.32;;;17.30;99.90;;;;;;4991490;28;20033;-96
2021/09/02 06:18:24;;;;;;;9.93;6.15;;;17.40;99.90;;;;;;4991678;28;20026;-83
2021/09/02 06:20:50;;;;;;;8.23;6.55;;;17.40;99.90;;;;;;4992883;28;20108;-82
2021/09/02 06:23:15;;;;;;;8.70;6.57;;;17.30;99.90;;;;;;4992523;28;20022;-83
2021/09/02 06:25:42;;;;;;;7.90;6.45;;;17.40;99.90;;;;;;4992358;28;20498;-83
2021/09/02 06:28:08;;;;;;;10.07;6.78;;;17.40;99.90;;;;;;4992655;28;20018;-83
2021/09/02 06:30:33;;;;;;;10.43;6.95;;;17.40;99.90;;;;;;4973237;28;20390;-82
2021/09/02 06:32:59;;;;;;;7.88;6.18;;;17.40;99.90;;;;;;4973135;28;20034;-82
2021/09/02 06:35:25;;;;;;;13.32;6.75;;;17.40;99.90;;;;;;4971878;28;20031;-83
2021/09/02 06:37:51;;;;;;;9.43;6.20;;;17.50;99.90;;;;;;4973990;28;20027;-85
2021/09/02 06:40:16;;;;;;;9.48;6.60;;;17.50;99.90;;;;;;4976692;28;20086;-86
2021/09/02 06:42:42;;;;;;;11.90;6.43;;;17.50;99.90;;;;;;4977622;28;20041;-84
2021/09/02 06:45:09;;;;;;;11.40;6.97;;;17.60;99.90;;;;;;4974161;28;20089;-83
2021/09/02 06:47:36;;;;;;;8.50;6.10;;;17.70;99.90;;;;;;4974526;28;20023;-84
2021/09/02 06:50:02;;;;;;;8.30;6.57;;;17.70;99.90;;;;;;4973220;28;20069;-84
2021/09/02 06:52:28;;;;;;;8.70;6.35;;;17.90;99.90;;;;;;4971996;28;20034;-96
2021/09/02 06:54:53;;;;;;;10.93;6.30;;;18.00;99.90;;;;;;4973489;28;20031;-83
2021/09/02 06:57:19;;;;;;;9.73;6.07;;;18.00;99.90;;;;;;4973505;28;20027;-88
2021/09/02 06:59:45;;;;;;;11.45;5.93;;;18.20;99.90;;;;;;4973800;28;20023;-85
2021/09/02 07:02:10;;;;;;;7.60;5.50;;;18.20;99.90;;;;;;4973495;28;20541;-95
2021/09/02 07:04:36;;;;;;;10.57;6.60;;;18.20;99.90;;;;;;4973417;28;20407;-84
2021/09/02 07:07:03;;;;;;;9.45;5.85;;;18.30;99.90;;;;;;4976739;28;20059;-84
2021/09/02 07:09:28;;;;;;;10.57;6.15;;;18.30;99.90;;;;;;4985964;28;20031;-84
2021/09/02 07:11:54;;;;;;;9.10;6.18;;;18.40;99.90;;;;;;4974779;28;20498;-84
2021/09/02 07:14:20;;;;;;;7.97;5.70;;;18.50;99.90;;;;;;4971993;28;20060;-84
2021/09/02 07:16:45;;;;;;;9.43;5.70;;;18.60;99.90;;;;;;4971258;28;20015;-85
2021/09/02 07:19:11;;;;;;;8.93;5.65;;;18.60;99.90;;;;;;4972027;28;20034;-84
2021/09/02 07:21:38;;;;;;;8.48;5.70;;;18.70;99.90;;;;;;4971724;28;20057;-84
2021/09/02 07:24:04;;;;;;;9.20;5.78;;;18.70;99.90;;;;;;4971884;28;20038;-84
2021/09/02 07:26:29;;;;;;;10.18;5.70;;;18.80;99.90;;;;;;4971752;28;20049;-84
2021/09/02 07:28:55;;;;;;;11.80;5.90;;;18.90;99.90;;;;;;4971527;28;20023;-84
2021/09/02 07:31:21;;;;;;;12.85;5.72;;;19.00;99.90;;;;;;4971614;28;20376;-84
2021/09/02 07:33:46;;;;;;;10.52;5.40;;;19.00;99.90;;;;;;4971455;28;20026;-84
2021/09/02 07:36:13;;;;;;;10.40;5.82;;;19.10;99.90;;;;;;4971323;28;20023;-84
2021/09/02 07:38:39;;;;;;;9.52;6.45;;;19.20;99.90;;;;;;4971440;28;20281;-84
2021/09/02 07:41:04;;;;;;;7.30;5.55;;;19.30;99.90;;;;;;4970053;28;20195;-84
2021/09/02 07:43:30;;;;;;;8.45;5.38;;;19.30;99.90;;;;;;4971347;28;20406;-84
2021/09/02 07:45:56;;;;;;;9.27;5.97;;;19.40;99.90;;;;;;4971318;28;20027;-85
2021/09/02 07:48:22;;;;;;;9.18;5.70;;;19.50;99.90;;;;;;4971058;28;20042;-84
2021/09/02 07:50:48;;;;;;;8.82;5.68;;;19.50;99.90;;;;;;4971367;28;20023;-84
2021/09/02 07:53:13;;;;;;;7.75;5.47;;;19.60;99.90;;;;;;4969759;28;20027;-84
2021/09/02 07:55:39;;;;;;;9.43;5.85;;;19.60;99.90;;;;;;4970513;28;20575;-84
2021/09/02 07:58:05;;;;;;;8.60;5.40;;;19.70;99.90;;;;;;4971282;28;20022;-84
2021/09/02 08:00:30;;;;;;;12.90;5.55;;;19.90;99.90;;;;;;4970850;28;20031;-84
2021/09/02 08:02:56;;;;;;;8.20;5.30;;;20.10;99.90;;;;;;4969803;28;20129;-84
2021/09/02 08:05:22;;;;;;;9.07;5.38;;;20.20;99.90;;;;;;4971446;28;20026;-84
2021/09/02 08:07:52;;;;;;;11.25;5.57;;;20.30;99.90;;;;;;4971435;28;20034;-85
2021/09/02 08:10:20;;;;;;;9.23;5.72;;;20.30;99.90;;;;;;4970936;28;20045;-84
2021/09/02 08:12:47;;;;;;;9.20;5.38;;;20.40;99.90;;;;;;4971018;28;20034;-84
2021/09/02 08:15:13;;;;;;;7.05;5.72;;;20.40;99.90;;;;;;4970831;28;20027;-84
2021/09/02 08:17:39;;;;;;;9.63;5.20;;;20.50;99.90;;;;;;4970987;28;20034;-84
2021/09/02 08:20:06;;;;;;;10.43;5.43;;;20.60;99.90;;;;;;4971240;28;20059;-84
2021/09/02 08:22:32;;;;;;;9.38;5.43;;;20.70;99.90;;;;;;4971364;28;20075;-84
2021/09/02 08:24:58;;;;;;;7.68;5.38;;;20.80;99.90;;;;;;4971128;28;20611;-85
2021/09/02 08:27:24;;;;;;;11.93;5.72;;;20.90;99.90;;;;;;4970981;28;20034;-84
2021/09/02 08:29:49;;;;;;;7.63;4.90;;;20.90;99.90;;;;;;4969387;28;20089;-84
2021/09/02 08:32:15;;;;;;;6.03;4.80;;;21.00;99.90;;;;;;4970766;28;20033;-84
2021/09/02 08:34:41;;;;;;;6.78;4.90;;;21.00;99.90;;;;;;4971041;28;20048;-84
2021/09/02 08:37:06;;;;;;;8.85;4.93;;;21.10;99.90;;;;;;4970860;28;20107;-84
2021/09/02 08:39:32;;;;;;;8.60;5.35;;;21.20;99.90;;;;;;4971276;28;20069;-85
2021/09/02 08:41:58;;;;;;;10.20;5.30;;;21.20;99.90;;;;;;4970936;28;20034;-85
2021/09/02 08:44:24;;;;;;;8.73;5.50;;;21.30;99.90;;;;;;4970725;28;20587;-84
2021/09/02 08:46:50;;;;;;;9.07;4.97;;;21.40;99.90;;;;;;4970676;28;20018;-84
2021/09/02 08:49:23;;;;;;;10.10;5.30;;;21.50;99.90;;;;;;4970683;28;20106;-84
2021/09/02 08:51:49;;;;;;;11.77;5.63;;;21.60;99.90;;;;;;4969407;28;20391;-84
2021/09/02 08:54:15;;;;;;;7.95;5.10;;;21.80;99.70;;;;;;4970965;28;20062;-84
2021/09/02 08:56:41;;;;;;;6.97;4.63;;;21.90;99.30;;;;;;4970905;28;20058;-85
2021/09/02 08:59:06;;;;;;;9.68;4.78;;;22.00;99.10;;;;;;4970713;28;20600;-84
2021/09/02 09:01:32;;;;;;;8.25;5.00;;;22.10;99.10;;;;;;4970376;28;20045;-85
2021/09/02 09:03:58;;;;;;;10.13;5.30;;;22.20;99.00;;;;;;4970738;28;20030;-85
2021/09/02 09:06:27;;;;;;;10.15;4.65;;;22.40;98.70;;;;;;4969808;28;20042;-85
2021/09/02 09:08:53;;;;;;;9.50;5.07;;;22.40;98.40;;;;;;4974029;28;20022;-85
2021/09/02 09:11:24;;;;;;;8.00;4.90;;;22.60;98.30;;;;;;4973991;28;20019;-84
2021/09/02 09:14:12;;;;;;;9.70;5.03;;;22.70;98.00;;;;;;4974072;28;20019;-85
2021/09/02 09:16:52;;;;;;;13.55;4.78;;;22.80;97.70;;;;;;4972579;28;20100;-84
2021/09/02 09:19:57;;;;;;;10.57;5.05;;;22.90;97.40;;;;;;4972584;28;20031;-85
2021/09/02 09:22:25;;;;;;;7.43;4.60;;;23.00;97.70;;;;;;4972527;28;20063;-85
2021/09/02 09:24:55;;;;;;;6.40;4.90;;;23.10;97.30;;;;;;4973950;28;20030;-85
2021/09/02 09:27:32;;;;;;;7.55;5.05;;;23.20;97.40;;;;;;4973775;28;20031;-84
2021/09/02 09:30:23;;;;;;;7.55;4.80;;;23.30;97.20;;;;;;4974105;28;20031;-85
2021/09/02 09:33:01;;;;;;;9.88;4.60;;;23.40;96.90;;;;;;4973858;28;20041;-85
2021/09/02 09:35:32;;;;;;;8.68;4.95;;;23.50;96.60;;;;;;4973679;28;20026;-85
2021/09/02 09:38:08;;;;;;;7.07;4.40;;;23.70;96.40;;;;;;4973762;28;20449;-85
2021/09/02 09:40:36;;;;;;;9.38;4.93;;;23.70;96.60;;;;;;4973263;28;20454;-85
2021/09/02 09:43:22;;;;;;;6.43;4.40;;;23.80;96.20;;;;;;4973510;28;20019;-84
2021/09/02 09:45:51;;;;;;;7.40;4.72;;;23.90;96.00;;;;;;4971772;28;20035;-83
2021/09/02 09:48:17;;;;;;;8.10;4.13;;;24.00;95.70;;;;;;4974302;28;20114;-83
2021/09/02 09:50:43;;;;;;;15.38;5.22;;;24.10;95.90;;;;;;4983823;28;20034;-84
2021/09/02 09:53:26;;;;;;;9.95;4.70;;;24.20;95.40;;;;;;4984057;28;20030;-84
2021/09/02 09:55:55;;;;;;;9.00;5.05;;;24.30;95.10;;;;;;4983815;28;20332;-83
2021/09/02 09:58:23;;;;;;;8.48;4.55;;;24.30;95.30;;;;;;4980681;28;20098;-83
2021/09/02 10:00:54;;;;;;;15.20;4.85;;;24.30;95.00;;;;;;4983778;28;20022;-83
2021/09/02 10:03:21;;;;;;;7.47;4.68;;;24.30;95.10;;;;;;4984072;28;20377;-83
2021/09/02 10:05:51;;;;;;;7.15;4.53;;;24.40;95.00;;;;;;4983744;28;20207;-83
2021/09/02 10:08:18;;;;;;;9.13;4.43;;;24.40;94.40;;;;;;4983998;28;20019;-83
2021/09/02 10:10:44;;;;;;;8.45;4.68;;;24.60;94.50;;;;;;4982324;28;20318;-83
2021/09/02 10:13:11;;;;;;;8.60;4.47;;;24.70;94.30;;;;;;4982152;28;20030;-83
2021/09/02 10:15:36;;;;;;;6.47;4.65;;;24.80;94.10;;;;;;4983422;28;20033;-84
2021/09/02 10:18:03;;;;;;;9.40;4.03;;;24.90;93.50;;;;;;4981111;28;20022;-83
2021/09/02 10:20:34;;;;;;;14.95;5.82;;;24.90;93.80;;;;;;4983146;28;20107;-83
2021/09/02 10:23:02;;;;;;;7.82;4.50;;;25.00;93.40;;;;;;4973437;28;20085;-83
2021/09/02 10:25:33;;;;;;;7.55;4.32;;;25.10;93.30;;;;;;4973574;28;20502;-83
2021/09/02 10:28:10;;;;;;;10.18;4.30;;;25.30;92.50;;;;;;4973249;28;20105;-83
2021/09/02 10:30:47;;;;;;;8.23;4.30;;;25.40;92.50;;;;;;4971114;28;20034;-83
2021/09/02 10:33:35;;;;;;;8.10;3.97;;;25.50;91.60;;;;;;4971702;28;20030;-91
2021/09/02 10:36:23;;;;;;;6.47;3.92;;;25.60;91.00;;;;;;4974852;28;20022;-83
2021/09/02 10:38:50;;;;;;;6.88;3.92;;;25.70;90.90;;;;;;4967335;28;20431;-84
2021/09/02 10:41:44;;;;;;;8.15;4.28;;;25.80;90.60;;;;;;4972575;28;20066;-84
2021/09/02 10:44:11;;;;;;;5.78;4.22;;;25.80;90.60;;;;;;4972918;28;20033;-83
2021/09/02 10:46:44;;;;;;;10.50;4.70;;;25.80;90.00;;;;;;4974014;28;20023;-84
2021/09/02 10:49:13;;;;;;;8.63;4.10;;;25.80;89.80;;;;;;4973632;28;20027;-84
2021/09/02 10:51:41;;;;;;;12.32;3.65;;;25.90;88.90;;;;;;4974384;28;20281;-84
2021/09/02 10:54:09;;;;;;;5.28;4.43;;;25.90;88.70;;;;;;4970949;28;20029;-84
2021/09/02 10:57:10;;;;;;;9.18;3.97;;;26.00;90.50;;;;;;4972042;28;20038;-84
2021/09/02 10:59:54;;;;;;;7.40;4.05;;;26.00;88.10;;;;;;4972187;28;20058;-84
2021/09/02 11:02:23;;;;;;;;;;;26.10;89.30;;;;;;4972483;28;20043;-84
2021/09/02 11:05:04;;;;;;;7.65;3.38;;;26.20;88.90;;;;;;4972217;28;19913;-84
2021/09/02 11:07:42;;;;;;;6.65;3.10;;;26.30;83.60;;;;;;4971834;28;20490;-84
2021/09/02 11:10:17;;;;;;;5.30;3.50;;;26.30;84.60;;;;;;4974621;28;20428;-84
2021/09/02 11:12:43;;;;;;;;;;;26.30;83.80;;;;;;4972163;28;20059;-84
2021/09/02 11:15:09;;;;;;;4.95;3.08;;;26.40;83.50;;;;;;4976676;28;19913;-85
2021/09/02 11:17:35;;;;;;;5.03;3.00;;;26.40;81.00;;;;;;4974170;28;20142;-84
2021/09/02 11:20:01;;;;;;;5.25;3.10;;;26.50;80.70;;;;;;4970449;28;20059;-84
2021/09/02 11:22:27;;;;;;;5.45;3.30;;;26.70;79.10;;;;;;5006833;28;20284;-84
2021/09/02 11:24:54;;;;;;;5.45;3.00;;;26.80;78.10;;;;;;5015147;28;20316;-84
2021/09/02 11:27:31;;;;;;;4.95;2.92;;;26.90;77.90;;;;;;5015403;28;20034;-84
2021/09/02 11:30:25;;;;;;;4.22;2.90;;;27.10;76.50;;;;;;5010318;28;20490;-84
2021/09/02 11:32:59;;;;;;;4.63;2.90;;;27.20;75.30;;;;;;4985886;28;20022;-84
2021/09/02 11:35:24;;;;;;;5.15;2.88;;;27.30;75.80;;;;;;5010312;28;20534;-84
2021/09/02 11:37:50;;;;;;;7.70;3.15;;;27.50;74.00;;;;;;5009021;28;20137;-84
2021/09/02 11:40:23;;;;;;;7.95;3.17;;;27.50;73.30;;;;;;5009097;28;20054;-85
2021/09/02 11:42:50;;;;;;;4.45;2.90;;;27.60;74.40;;;;;;5008891;28;20037;-85
2021/09/02 11:45:17;;;;;;;5.88;3.10;;;27.70;71.00;;;;;;5010176;28;20026;-84
2021/09/02 11:47:43;;;;;;;9.43;2.67;;;27.80;69.70;;;;;;5008646;28;20014;-84
2021/09/02 11:50:09;;;;;;;7.15;2.90;;;27.90;70.70;;;;;;5010243;28;20029;-84
2021/09/02 11:52:43;;;;;;;4.00;3.08;;;27.90;69.50;;;;;;5007286;28;20022;-85
2021/09/02 11:55:35;;;;;;;4.70;2.92;;;28.00;69.70;;;;;;5009985;28;20057;-84
2021/09/02 11:58:04;;;;;;;5.53;3.20;;;28.20;70.40;;;;;;5010370;28;20081;-84
2021/09/02 12:00:31;;;;;;;10.25;3.35;;;27.90;69.00;;;;;;5012304;28;20037;-84
2021/09/02 12:02:59;;;;;;;5.38;3.33;;;28.10;71.80;;;;;;5012363;28;20073;-84
2021/09/02 12:05:38;;;;;;;4.45;3.00;;;28.30;70.60;;;;;;5014157;28;20045;-84
2021/09/02 12:08:08;;;;;;;6.78;2.97;;;28.40;70.20;;;;;;5008732;28;20579;-84
2021/09/02 12:10:35;;;;;;;4.63;3.10;;;28.50;70.90;;;;;;5009739;28;20060;-84
2021/09/02 12:13:24;;;;;;;4.95;2.90;;;28.70;69.90;;;;;;5011575;28;20018;-85
2021/09/02 12:16:07;;;;;;;4.03;3.00;;;28.90;68.90;;;;;;5014700;28;20029;-84
2021/09/02 12:18:34;;;;;;;9.52;2.95;;;29.00;68.20;;;;;;5008740;28;20053;-84
2021/09/02 12:21:31;;;;;;;4.70;2.83;;;29.20;68.40;;;;;;5008708;28;20038;-84
2021/09/02 12:24:16;;;;;;;6.00;3.30;;;29.30;67.70;;;;;;5010008;28;20029;-84
2021/09/02 12:26:51;;;;;;;5.93;2.80;;;29.30;67.40;;;;;;5015769;28;20074;-84
2021/09/02 12:29:23;;;;;;;6.70;3.13;;;29.30;64.70;;;;;;5011501;28;20033;-83
2021/09/02 12:31:50;;;;;;;4.20;2.90;;;29.20;65.50;;;;;;5009828;28;20562;-85
2021/09/02 12:34:23;;;;;;;6.65;3.42;;;29.30;66.70;;;;;;5010063;28;20018;-85
2021/09/02 12:37:06;;;;;;;5.53;2.90;;;29.40;66.50;;;;;;4984053;28;20026;-84
2021/09/02 12:39:46;;;;;;;6.18;2.70;;;29.50;66.30;;;;;;4989418;28;20011;-85
2021/09/02 12:42:27;;;;;;;3.60;2.67;;;29.50;65.80;;;;;;4991816;28;20518;-85
2021/09/02 12:45:11;;;;;;;3.90;2.55;;;29.50;65.50;;;;;;4993481;28;20065;-85
2021/09/02 12:47:37;;;;;;;5.00;2.53;;;29.80;62.20;;;;;;4993847;28;20140;-84
2021/09/02 12:50:19;;;;;;;5.57;2.38;;;30.00;60.80;;;;;;5002517;28;20049;-85
2021/09/02 12:52:46;;;;;;;4.97;2.35;;;30.10;61.70;;;;;;4995183;28;20022;-84